Decoded Metar for KMCX ( in ) (IATA:) | Meteo·Mobile Aviation Weather
aviador You're here:

KMCX Decoded Metar

in
Report Time2018-09-18 13:35:00
UTC Time2018-09-18 13:34:45
Flight Rules vfr VFR
WindCalm
Visibility9999 m
Phenomena:N/A
Clouds:N/A
Expected CloudBase > 1,600 ft AGL from Temp-Dew spread
CeilingNone
Temp23°C
Dew Point19°C (78% RH)
QNH1015 hPa
Raw Report
KMCX 181335Z AUTO 00000KT 10SM CLR 23/19 A2997 RMK AO2
T02300190=

Extra information for KMCX:More info

Social comments